Time;durP1;ratioP1;P1;durP2;ratioP2;P2;SDS_P1;SDS_P2;PMS_P1;PMS_P2;Temp;Humidity;BMP_temperature;BMP_pressure;BME280_temperature;BME280_humidity;BME280_pressure;Samples;Min_cycle;Max_cycle;Signal;HPM_P1;HPM_P2
2023/04/18 00:00:33;;;;;;;25.00;17.92;;;13.70;48.70;;;;;;5033481;28;20408;-49
2023/04/18 00:02:59;;;;;;;22.30;16.83;;;13.80;48.40;;;;;;5033217;28;20185;-49
2023/04/18 00:05:25;;;;;;;23.50;16.70;;;13.80;48.50;;;;;;5033113;28;20634;-49
2023/04/18 00:07:52;;;;;;;20.58;15.00;;;13.80;48.50;;;;;;5032271;28;20178;-49
2023/04/18 00:10:18;;;;;;;21.88;17.60;;;13.80;48.50;;;;;;5032924;28;20694;-49
2023/04/18 00:12:43;;;;;;;21.83;16.93;;;13.80;48.40;;;;;;5032725;28;20178;-49
2023/04/18 00:15:10;;;;;;;23.40;19.60;;;13.70;48.50;;;;;;5033224;28;20169;-50
2023/04/18 00:17:39;;;;;;;24.40;18.00;;;13.70;48.40;;;;;;5033087;28;20504;-49
2023/04/18 00:20:09;;;;;;;22.40;17.95;;;13.70;48.40;;;;;;5032963;28;20189;-49
2023/04/18 00:22:35;;;;;;;24.95;18.65;;;13.70;48.50;;;;;;5032801;28;20200;-49
2023/04/18 00:25:01;;;;;;;19.95;15.65;;;13.70;48.60;;;;;;5032734;28;20177;-49
2023/04/18 00:27:26;;;;;;;24.93;17.40;;;13.70;48.60;;;;;;5032768;28;20185;-49
2023/04/18 00:29:52;;;;;;;19.80;15.60;;;13.80;48.50;;;;;;5032509;28;20457;-49
2023/04/18 00:32:18;;;;;;;31.60;20.57;;;13.80;48.50;;;;;;5032395;28;20162;-49
2023/04/18 00:34:44;;;;;;;23.42;20.35;;;13.80;48.40;;;;;;5032401;28;20240;-49
2023/04/18 00:37:10;;;;;;;24.48;19.35;;;13.80;48.40;;;;;;5032485;28;20530;-49
2023/04/18 00:39:36;;;;;;;22.93;18.33;;;13.80;48.40;;;;;;5032402;28;20190;-49
2023/04/18 00:42:02;;;;;;;26.93;21.93;;;13.80;48.30;;;;;;5032339;28;20170;-49
2023/04/18 00:44:31;;;;;;;25.60;20.02;;;13.80;48.20;;;;;;5032538;28;20170;-49
2023/04/18 00:46:57;;;;;;;23.48;19.30;;;13.80;48.20;;;;;;5032648;28;20170;-50
2023/04/18 00:49:24;;;;;;;23.65;19.02;;;13.80;48.20;;;;;;5032115;28;20206;-49
2023/04/18 00:51:50;;;;;;;23.80;19.17;;;13.80;48.20;;;;;;5032231;28;20233;-49
2023/04/18 00:54:17;;;;;;;23.20;18.90;;;13.80;48.20;;;;;;5032450;28;20170;-49
2023/04/18 00:56:46;;;;;;;19.55;17.25;;;13.80;48.20;;;;;;5032352;28;20542;-49
2023/04/18 00:59:13;;;;;;;27.60;19.95;;;13.70;48.30;;;;;;5032435;28;20269;-49
2023/04/18 01:01:39;;;;;;;24.42;19.33;;;13.70;48.20;;;;;;5032367;28;20233;-50
2023/04/18 01:04:05;;;;;;;25.23;19.97;;;13.70;48.20;;;;;;5031890;28;20190;-49
2023/04/18 01:06:32;;;;;;;25.25;19.85;;;13.70;48.20;;;;;;5032089;28;20416;-49
2023/04/18 01:08:57;;;;;;;24.13;19.67;;;13.70;48.20;;;;;;5031950;28;20566;-50
2023/04/18 01:11:23;;;;;;;23.70;18.73;;;13.70;48.20;;;;;;5032129;28;20203;-50
2023/04/18 01:14:00;;;;;;;22.73;20.10;;;13.70;48.20;;;;;;5031789;28;20170;-50
2023/04/18 01:16:26;;;;;;;27.23;20.55;;;13.70;48.20;;;;;;5032036;28;20165;-49
2023/04/18 01:18:52;;;;;;;24.85;20.27;;;13.70;48.40;;;;;;5031577;28;20198;-49
2023/04/18 01:21:20;;;;;;;25.00;20.63;;;13.70;48.20;;;;;;5031839;28;20188;-49
2023/04/18 01:23:47;;;;;;;26.73;19.85;;;13.70;47.90;;;;;;5031689;28;20182;-49
2023/04/18 01:26:13;;;;;;;27.83;20.10;;;13.60;48.00;;;;;;5032210;28;20261;-49
2023/04/18 01:28:39;;;;;;;24.20;20.15;;;13.60;48.20;;;;;;5032155;28;20277;-49
2023/04/18 01:31:05;;;;;;;25.60;21.57;;;13.60;48.30;;;;;;5032273;28;20197;-49
2023/04/18 01:33:30;;;;;;;25.47;20.77;;;13.60;48.30;;;;;;5031627;28;20447;-49
2023/04/18 01:35:56;;;;;;;28.67;20.40;;;13.50;48.80;;;;;;5032109;28;20285;-49
2023/04/18 01:38:22;;;;;;;26.47;21.23;;;13.50;48.20;;;;;;5032065;28;20665;-49
2023/04/18 01:40:48;;;;;;;29.90;23.03;;;13.50;48.30;;;;;;5031855;28;20166;-49
2023/04/18 01:43:14;;;;;;;28.85;22.10;;;13.50;48.30;;;;;;5031612;28;20182;-49
2023/04/18 01:45:40;;;;;;;30.40;24.37;;;13.50;48.40;;;;;;5031938;28;20191;-49
2023/04/18 01:48:05;;;;;;;28.60;23.17;;;13.50;48.10;;;;;;5031633;28;20456;-49
2023/04/18 01:50:31;;;;;;;27.73;21.40;;;13.40;48.10;;;;;;5031627;28;20256;-49
2023/04/18 01:52:57;;;;;;;28.20;23.63;;;13.40;48.10;;;;;;5031455;28;20177;-49
2023/04/18 01:55:23;;;;;;;33.63;26.07;;;13.40;48.30;;;;;;5031891;28;20174;-49
2023/04/18 01:57:49;;;;;;;30.53;24.40;;;13.40;48.20;;;;;;5031577;28;20178;-49
2023/04/18 02:00:15;;;;;;;28.42;22.98;;;13.40;48.20;;;;;;5031798;28;20220;-49
2023/04/18 02:02:42;;;;;;;27.60;23.95;;;13.50;48.20;;;;;;5031332;28;20182;-49
2023/04/18 02:05:08;;;;;;;32.03;22.45;;;13.40;48.20;;;;;;5031554;28;20205;-49
2023/04/18 02:07:34;;;;;;;28.98;21.48;;;13.50;48.30;;;;;;5031821;28;20186;-49
2023/04/18 02:09:59;;;;;;;27.23;23.33;;;13.50;48.00;;;;;;5031735;28;20689;-49
2023/04/18 02:12:25;;;;;;;31.37;23.30;;;13.50;47.90;;;;;;5031513;28;21012;-50
2023/04/18 02:14:52;;;;;;;32.03;24.53;;;13.50;47.80;;;;;;5031712;28;20178;-49
2023/04/18 02:17:22;;;;;;;29.15;22.60;;;13.40;47.60;;;;;;5031690;28;20257;-49
2023/04/18 02:19:49;;;;;;;36.15;23.98;;;13.40;47.60;;;;;;5031353;28;20278;-49
2023/04/18 02:22:15;;;;;;;29.67;22.50;;;13.40;47.50;;;;;;5031260;28;20202;-49
2023/04/18 02:24:41;;;;;;;30.83;22.67;;;13.30;47.60;;;;;;5031432;28;20208;-49
2023/04/18 02:27:07;;;;;;;34.37;26.20;;;13.30;48.30;;;;;;5031305;28;20431;-49
2023/04/18 02:29:33;;;;;;;28.20;22.07;;;13.30;47.70;;;;;;5031180;28;20202;-50
2023/04/18 02:31:58;;;;;;;28.73;23.27;;;13.30;47.80;;;;;;5033619;28;20404;-49
2023/04/18 02:34:24;;;;;;;32.57;24.40;;;13.30;47.80;;;;;;5035035;28;20198;-49
2023/04/18 02:36:50;;;;;;;31.80;24.57;;;13.30;47.70;;;;;;5034915;28;20424;-49
2023/04/18 02:39:16;;;;;;;33.97;23.83;;;13.20;47.50;;;;;;5034937;28;20508;-49
2023/04/18 02:41:41;;;;;;;30.63;23.70;;;13.20;47.60;;;;;;5034778;28;20298;-49
2023/04/18 02:44:07;;;;;;;29.50;24.47;;;13.30;47.70;;;;;;5034594;28;20573;-49
2023/04/18 02:46:33;;;;;;;33.23;24.60;;;13.30;47.70;;;;;;5034918;28;20247;-49
2023/04/18 02:48:59;;;;;;;28.77;22.63;;;13.30;47.60;;;;;;5034499;28;20805;-49
2023/04/18 02:51:26;;;;;;;31.17;24.05;;;13.30;47.80;;;;;;5034449;28;20702;-49
2023/04/18 02:53:54;;;;;;;30.65;23.38;;;13.30;47.70;;;;;;5034607;28;20180;-50
2023/04/18 02:56:20;;;;;;;27.55;23.15;;;13.30;47.80;;;;;;5034439;28;20200;-49
2023/04/18 02:58:47;;;;;;;29.30;23.05;;;13.30;47.80;;;;;;5034602;28;20194;-49
2023/04/18 03:01:14;;;;;;;28.40;21.73;;;13.30;47.80;;;;;;5034293;28;20645;-49
2023/04/18 03:03:40;;;;;;;26.88;20.52;;;13.30;47.90;;;;;;5034125;28;20188;-50
2023/04/18 03:06:06;;;;;;;27.57;21.80;;;13.30;47.90;;;;;;5034556;28;20178;-49
2023/04/18 03:08:31;;;;;;;23.17;20.47;;;13.20;47.60;;;;;;5034266;28;20697;-50
2023/04/18 03:10:57;;;;;;;27.30;21.00;;;13.20;47.40;;;;;;5034327;28;20289;-49
2023/04/18 03:13:23;;;;;;;24.03;20.87;;;13.10;47.60;;;;;;5033903;28;20711;-49
2023/04/18 03:15:49;;;;;;;29.15;22.65;;;13.10;47.90;;;;;;5034257;28;20170;-49
2023/04/18 03:18:15;;;;;;;25.50;20.60;;;13.10;47.80;;;;;;5033967;28;20198;-50
2023/04/18 03:20:41;;;;;;;26.13;19.87;;;13.10;47.80;;;;;;5034070;28;20177;-49
2023/04/18 03:23:07;;;;;;;28.33;21.43;;;13.10;47.80;;;;;;5033798;28;20174;-50
2023/04/18 03:25:33;;;;;;;25.80;21.57;;;13.10;47.60;;;;;;5034167;28;20581;-50
2023/04/18 03:27:59;;;;;;;27.47;22.60;;;13.10;47.60;;;;;;5034077;28;20193;-49
2023/04/18 03:30:25;;;;;;;31.33;24.67;;;13.00;47.60;;;;;;5033656;28;20464;-49
2023/04/18 03:32:54;;;;;;;24.27;20.58;;;13.10;47.50;;;;;;5033477;28;20897;-48
2023/04/18 03:35:20;;;;;;;27.65;21.65;;;13.00;47.40;;;;;;5033756;28;20173;-49
2023/04/18 03:37:46;;;;;;;29.13;20.23;;;13.00;47.60;;;;;;5033669;28;20656;-48
2023/04/18 03:40:12;;;;;;;35.13;21.00;;;13.00;47.70;;;;;;5033483;28;20201;-49
2023/04/18 03:42:38;;;;;;;30.17;23.27;;;13.00;47.50;;;;;;5032299;28;20178;-49
2023/04/18 03:45:04;;;;;;;33.85;23.23;;;13.00;47.60;;;;;;5033737;28;20416;-49
2023/04/18 03:47:30;;;;;;;31.25;25.13;;;12.90;47.60;;;;;;5033579;28;20232;-48
2023/04/18 03:49:56;;;;;;;30.38;22.70;;;12.90;47.60;;;;;;5033309;28;20672;-48
2023/04/18 03:52:22;;;;;;;32.20;23.37;;;12.90;47.90;;;;;;5033130;28;20201;-49
2023/04/18 03:54:48;;;;;;;29.70;22.73;;;12.90;47.90;;;;;;5033273;28;20170;-49
2023/04/18 03:57:14;;;;;;;35.00;23.90;;;12.90;47.90;;;;;;5033571;28;20488;-49
2023/04/18 03:59:40;;;;;;;29.53;23.33;;;12.90;47.90;;;;;;5033178;28;20712;-49
2023/04/18 04:02:06;;;;;;;29.52;21.98;;;12.90;47.70;;;;;;5033076;28;20811;-49
2023/04/18 04:04:32;;;;;;;33.47;22.23;;;12.90;47.70;;;;;;5033104;28;20269;-50
2023/04/18 04:06:58;;;;;;;36.70;24.33;;;12.90;47.80;;;;;;5033350;28;20169;-48
2023/04/18 04:09:24;;;;;;;30.95;21.90;;;12.90;47.70;;;;;;5032891;28;20686;-49
2023/04/18 04:11:50;;;;;;;28.40;21.43;;;12.80;47.60;;;;;;5033034;28;20198;-49
2023/04/18 04:14:15;;;;;;;32.07;22.73;;;12.80;47.50;;;;;;5033301;28;20185;-50
2023/04/18 04:16:41;;;;;;;30.07;21.60;;;12.80;47.40;;;;;;5032897;28;20177;-49
2023/04/18 04:19:07;;;;;;;28.93;21.97;;;12.80;47.50;;;;;;5032811;28;20217;-49
2023/04/18 04:21:33;;;;;;;31.67;22.47;;;12.80;47.40;;;;;;5032871;28;20901;-49
2023/04/18 04:24:00;;;;;;;36.70;24.47;;;12.70;47.60;;;;;;5032811;28;20187;-50
2023/04/18 04:26:26;;;;;;;31.33;21.02;;;12.70;47.80;;;;;;5033012;28;20186;-47
2023/04/18 04:28:52;;;;;;;29.92;21.20;;;12.80;47.60;;;;;;5032722;28;20212;-50
2023/04/18 04:31:20;;;;;;;32.78;22.42;;;12.70;47.40;;;;;;5032633;28;20201;-49
2023/04/18 04:33:46;;;;;;;32.63;22.88;;;12.80;47.70;;;;;;5032408;28;20248;-47
2023/04/18 04:36:13;;;;;;;30.63;21.00;;;12.70;47.60;;;;;;5032530;28;20166;-50
2023/04/18 04:38:40;;;;;;;31.83;23.70;;;12.80;47.60;;;;;;5032798;28;20429;-50
2023/04/18 04:41:06;;;;;;;30.67;22.08;;;12.70;47.60;;;;;;5032619;28;20265;-46
2023/04/18 04:43:33;;;;;;;27.38;21.02;;;12.70;47.60;;;;;;5032173;28;20229;-50
2023/04/18 04:45:59;;;;;;;30.98;23.80;;;12.70;47.70;;;;;;5032554;28;20223;-49
2023/04/18 04:48:24;;;;;;;33.22;24.02;;;12.70;47.50;;;;;;5032162;28;20237;-47
2023/04/18 04:50:55;;;;;;;29.63;20.70;;;12.70;47.40;;;;;;5032227;28;20221;-49
2023/04/18 04:53:22;;;;;;;34.25;23.42;;;12.60;47.50;;;;;;5031882;28;20634;-49
2023/04/18 04:55:48;;;;;;;28.77;23.17;;;12.60;47.40;;;;;;5032125;28;20550;-47
2023/04/18 04:58:14;;;;;;;38.78;24.80;;;12.60;47.50;;;;;;5032224;28;20201;-50
2023/04/18 05:00:40;;;;;;;29.63;21.60;;;12.60;47.70;;;;;;5032253;28;20185;-49
2023/04/18 05:03:06;;;;;;;35.90;23.37;;;12.60;47.70;;;;;;5032144;28;20212;-49
2023/04/18 05:05:32;;;;;;;32.00;22.27;;;12.50;47.80;;;;;;5032298;28;20185;-49
2023/04/18 05:07:58;;;;;;;30.20;22.27;;;12.60;47.70;;;;;;5032238;28;20198;-49
2023/04/18 05:10:24;;;;;;;30.80;23.07;;;12.60;47.60;;;;;;5031913;28;20459;-49
2023/04/18 05:12:50;;;;;;;33.50;24.23;;;12.50;47.70;;;;;;5031790;28;20400;-50
2023/04/18 05:15:16;;;;;;;31.97;20.90;;;12.50;47.60;;;;;;5032044;28;20198;-48
2023/04/18 05:17:42;;;;;;;29.08;21.08;;;12.40;47.60;;;;;;5032169;28;20174;-49
2023/04/18 05:20:09;;;;;;;29.77;21.07;;;12.50;47.80;;;;;;5031863;28;20188;-50
2023/04/18 05:22:35;;;;;;;34.15;21.10;;;12.50;47.90;;;;;;5031596;28;20178;-47
2023/04/18 05:25:01;;;;;;;31.73;19.88;;;12.50;47.90;;;;;;5031769;28;20186;-49
2023/04/18 05:27:27;;;;;;;29.77;21.00;;;12.50;47.80;;;;;;5031960;28;20174;-49
2023/04/18 05:29:53;;;;;;;32.35;20.23;;;12.50;47.80;;;;;;5032006;28;20198;-49
2023/04/18 05:32:19;;;;;;;28.53;20.80;;;12.50;47.70;;;;;;5031877;28;20184;-49
2023/04/18 05:34:45;;;;;;;27.70;19.30;;;12.50;47.80;;;;;;5031768;28;20942;-49
2023/04/18 05:37:11;;;;;;;24.48;18.45;;;12.50;47.40;;;;;;5031736;28;20409;-49
2023/04/18 05:39:37;;;;;;;25.90;19.33;;;12.50;47.50;;;;;;5031797;28;20285;-50
2023/04/18 05:42:03;;;;;;;24.50;19.20;;;12.40;47.60;;;;;;5031472;28;20174;-50
2023/04/18 05:44:29;;;;;;;26.40;19.87;;;12.40;47.70;;;;;;5031676;28;20189;-49
2023/04/18 05:46:55;;;;;;;27.25;17.80;;;12.40;47.80;;;;;;5031566;28;20209;-48
2023/04/18 05:49:20;;;;;;;23.50;17.87;;;12.40;47.60;;;;;;5031443;28;20290;-49
2023/04/18 05:51:48;;;;;;;21.20;17.40;;;12.50;47.60;;;;;;5031459;28;20963;-49
2023/04/18 05:54:15;;;;;;;23.65;17.58;;;12.50;47.70;;;;;;5031621;28;20962;-49
2023/04/18 05:56:41;;;;;;;22.35;16.85;;;12.50;47.60;;;;;;5031891;28;20186;-50
2023/04/18 05:59:07;;;;;;;25.08;18.15;;;12.50;47.60;;;;;;5031678;28;20197;-50
2023/04/18 06:01:33;;;;;;;25.97;17.27;;;12.40;47.60;;;;;;5031788;28;20182;-49
2023/04/18 06:03:59;;;;;;;24.10;16.43;;;12.40;47.70;;;;;;5031388;28;20174;-49
2023/04/18 06:06:25;;;;;;;23.35;17.98;;;12.40;47.60;;;;;;5033625;28;20209;-49
2023/04/18 06:08:50;;;;;;;25.37;17.10;;;12.40;47.70;;;;;;5035498;28;20625;-49
2023/04/18 06:11:18;;;;;;;22.97;17.30;;;12.40;47.60;;;;;;5035184;28;20502;-49
2023/04/18 06:13:44;;;;;;;27.63;18.23;;;12.30;47.80;;;;;;5034945;28;20189;-49
2023/04/18 06:16:10;;;;;;;27.23;16.67;;;12.30;47.90;;;;;;5035107;28;20174;-49
2023/04/18 06:18:36;;;;;;;25.77;20.00;;;12.30;48.00;;;;;;5034965;28;20221;-49
2023/04/18 06:21:02;;;;;;;31.00;20.35;;;12.30;47.90;;;;;;5034968;28;20401;-49
2023/04/18 06:23:28;;;;;;;28.20;19.43;;;12.30;48.00;;;;;;5034830;28;20189;-47
2023/04/18 06:25:53;;;;;;;30.27;19.57;;;12.30;47.90;;;;;;5035243;28;20212;-50
2023/04/18 06:28:19;;;;;;;29.43;19.97;;;12.30;48.00;;;;;;5034762;28;20202;-50
2023/04/18 06:30:45;;;;;;;31.90;20.77;;;12.30;48.00;;;;;;5017484;28;20448;-49
2023/04/18 06:33:11;;;;;;;28.83;19.60;;;12.30;48.10;;;;;;5034422;28;20177;-49
2023/04/18 06:35:36;;;;;;;34.50;20.83;;;12.30;48.10;;;;;;5034842;28;20588;-49
2023/04/18 06:38:03;;;;;;;29.80;19.30;;;12.30;47.90;;;;;;5034695;28;20204;-49
2023/04/18 06:40:28;;;;;;;27.27;19.23;;;12.30;48.00;;;;;;5034999;28;20811;-49
2023/04/18 06:42:54;;;;;;;29.57;21.03;;;12.30;48.20;;;;;;5034392;28;20189;-48
2023/04/18 06:45:20;;;;;;;23.83;18.93;;;12.40;48.20;;;;;;5034687;28;20178;-48
2023/04/18 06:47:46;;;;;;;29.30;18.70;;;12.40;48.00;;;;;;5034337;28;20486;-48
2023/04/18 06:50:12;;;;;;;28.38;19.50;;;12.40;48.10;;;;;;5034447;28;20456;-48
2023/04/18 06:52:43;;;;;;;27.40;20.48;;;12.50;48.00;;;;;;5034365;28;20174;-48
2023/04/18 06:55:10;;;;;;;28.15;18.23;;;12.50;48.00;;;;;;5034834;28;20517;-48
2023/04/18 06:57:37;;;;;;;28.30;19.27;;;12.50;48.00;;;;;;5034407;28;20170;-48
2023/04/18 07:00:04;;;;;;;27.15;19.27;;;12.50;48.00;;;;;;5034245;28;20650;-49
2023/04/18 07:02:30;;;;;;;29.98;20.45;;;12.50;48.00;;;;;;5034299;28;20182;-49
2023/04/18 07:04:56;;;;;;;27.95;19.58;;;12.60;47.90;;;;;;5034284;28;20712;-48
2023/04/18 07:07:22;;;;;;;25.10;18.30;;;12.60;47.70;;;;;;5034191;28;20186;-48
2023/04/18 07:09:49;;;;;;;28.48;19.35;;;12.60;47.60;;;;;;5034012;28;20436;-49
2023/04/18 07:12:15;;;;;;;25.83;18.40;;;12.60;47.60;;;;;;5033742;28;20181;-48
2023/04/18 07:14:41;;;;;;;27.13;20.10;;;12.60;47.60;;;;;;5033945;28;20602;-49
2023/04/18 07:17:06;;;;;;;28.13;19.30;;;12.50;47.60;;;;;;5034196;28;20221;-48
2023/04/18 07:19:32;;;;;;;23.33;17.97;;;12.60;47.50;;;;;;5034036;28;20186;-49
2023/04/18 07:21:58;;;;;;;25.27;18.07;;;12.50;47.60;;;;;;5033939;28;20170;-49
2023/04/18 07:24:24;;;;;;;28.40;20.08;;;12.50;47.80;;;;;;5034209;28;20186;-49
2023/04/18 07:26:50;;;;;;;25.60;17.77;;;12.60;47.90;;;;;;5034124;28;20255;-49
2023/04/18 07:29:18;;;;;;;27.75;17.40;;;12.50;47.60;;;;;;5033685;28;20281;-49
2023/04/18 07:31:44;;;;;;;25.33;17.65;;;12.60;47.40;;;;;;5033876;28;20205;-48
2023/04/18 07:34:10;;;;;;;28.27;18.95;;;12.50;47.60;;;;;;5033632;28;20634;-49
2023/04/18 07:36:36;;;;;;;23.83;17.83;;;12.50;47.70;;;;;;5033777;28;20668;-49
2023/04/18 07:39:02;;;;;;;28.80;21.40;;;12.50;47.80;;;;;;5033519;28;20193;-49
2023/04/18 07:41:28;;;;;;;32.17;21.13;;;12.50;47.70;;;;;;5033452;28;20178;-49
2023/04/18 07:43:54;;;;;;;24.00;16.90;;;12.50;47.80;;;;;;5033306;28;20177;-49
2023/04/18 07:46:19;;;;;;;24.73;17.90;;;12.50;47.70;;;;;;5033759;28;20177;-48
2023/04/18 07:48:45;;;;;;;24.07;17.20;;;12.60;47.60;;;;;;5033275;28;20847;-48
2023/04/18 07:51:11;;;;;;;27.67;18.30;;;12.60;47.60;;;;;;5033618;28;20201;-48
2023/04/18 07:53:37;;;;;;;26.17;19.47;;;12.60;47.60;;;;;;5033172;28;20538;-49
2023/04/18 07:56:03;;;;;;;26.07;16.87;;;12.60;47.60;;;;;;5033291;28;20170;-49
2023/04/18 07:58:28;;;;;;;27.77;18.55;;;12.60;47.60;;;;;;5015296;28;20243;-49
2023/04/18 08:00:54;;;;;;;22.23;17.07;;;12.70;47.60;;;;;;5033195;28;20562;-48
2023/04/18 08:03:20;;;;;;;30.30;20.80;;;12.70;47.50;;;;;;5033093;28;20178;-48
2023/04/18 08:05:45;;;;;;;24.53;17.70;;;12.70;47.40;;;;;;5033103;28;20174;-48
2023/04/18 08:08:12;;;;;;;22.70;17.20;;;12.70;47.60;;;;;;5033223;28;20276;-48
2023/04/18 08:10:38;;;;;;;26.23;17.83;;;12.70;47.20;;;;;;5033152;28;20198;-49
2023/04/18 08:13:04;;;;;;;25.17;17.57;;;12.80;47.30;;;;;;5032619;28;20235;-49
2023/04/18 08:15:31;;;;;;;25.83;17.77;;;12.80;47.40;;;;;;5033157;28;20415;-48
2023/04/18 08:17:57;;;;;;;28.23;19.65;;;12.80;47.40;;;;;;5032907;28;20554;-49
2023/04/18 08:20:23;;;;;;;25.60;17.58;;;12.80;47.30;;;;;;5032958;28;20545;-49
2023/04/18 08:22:49;;;;;;;22.97;16.57;;;12.80;47.30;;;;;;5015002;28;20178;-49
2023/04/18 08:25:16;;;;;;;23.25;16.95;;;12.80;47.50;;;;;;5032946;28;20459;-48
2023/04/18 08:27:42;;;;;;;31.05;20.55;;;12.90;47.60;;;;;;5032605;28;20173;-49
2023/04/18 08:30:09;;;;;;;24.45;17.73;;;13.00;47.50;;;;;;5032135;28;20198;-48
2023/04/18 08:32:37;;;;;;;24.13;16.33;;;13.00;47.50;;;;;;5032325;28;20606;-48
2023/04/18 08:35:03;;;;;;;24.38;18.98;;;13.10;47.40;;;;;;5032781;28;20177;-48
2023/04/18 08:37:30;;;;;;;23.75;16.67;;;13.10;47.00;;;;;;5032519;28;20257;-49
2023/04/18 08:39:56;;;;;;;27.75;18.55;;;13.10;47.30;;;;;;5032618;28;20320;-50
2023/04/18 08:42:22;;;;;;;25.83;17.57;;;13.10;47.20;;;;;;5032226;28;20969;-48
2023/04/18 08:44:48;;;;;;;22.05;16.83;;;13.10;47.20;;;;;;5032369;28;20162;-49
2023/04/18 08:47:15;;;;;;;25.38;17.25;;;13.20;47.10;;;;;;5032468;28;20232;-49
2023/04/18 08:49:44;;;;;;;21.48;15.98;;;13.20;46.90;;;;;;5032576;28;20205;-48
2023/04/18 08:52:12;;;;;;;25.08;17.00;;;13.20;46.90;;;;;;5032009;28;20181;-49
2023/04/18 08:54:41;;;;;;;22.70;15.82;;;13.30;47.10;;;;;;5032477;28;20174;-49
2023/04/18 08:57:12;;;;;;;24.85;18.95;;;13.30;47.20;;;;;;5032403;28;20181;-49
2023/04/18 08:59:38;;;;;;;23.52;16.63;;;13.40;46.80;;;;;;5032455;28;20186;-49
2023/04/18 09:02:07;;;;;;;27.42;18.40;;;13.50;46.90;;;;;;5031915;28;20601;-49
2023/04/18 09:04:43;;;;;;;24.35;18.50;;;13.50;46.60;;;;;;5032161;28;20181;-49
2023/04/18 09:07:16;;;;;;;22.90;17.23;;;13.50;46.80;;;;;;5032105;28;20198;-49
2023/04/18 09:09:53;;;;;;;33.75;18.73;;;13.60;46.70;;;;;;5032031;28;20208;-48
2023/04/18 09:12:23;;;;;;;26.17;16.88;;;13.70;47.30;;;;;;5031810;28;20626;-48
2023/04/18 09:14:51;;;;;;;22.92;16.95;;;13.70;46.60;;;;;;5031989;28;20189;-49
2023/04/18 09:17:37;;;;;;;21.88;17.20;;;13.70;46.10;;;;;;5032024;28;20169;-49
2023/04/18 09:20:05;;;;;;;28.33;19.30;;;13.70;46.20;;;;;;5032126;28;20209;-49
2023/04/18 09:22:50;;;;;;;27.75;18.35;;;13.70;46.00;;;;;;5031889;28;20185;-49
2023/04/18 09:25:28;;;;;;;23.20;20.02;;;13.80;46.10;;;;;;5032015;28;20173;-49
2023/04/18 09:27:59;;;;;;;26.10;19.30;;;13.70;46.10;;;;;;5032050;28;20173;-49
2023/04/18 09:30:38;;;;;;;28.17;19.65;;;13.70;46.30;;;;;;5032083;28;20202;-48
2023/04/18 09:33:08;;;;;;;28.00;20.27;;;13.70;46.10;;;;;;5031665;28;20169;-49
2023/04/18 09:35:37;;;;;;;31.20;21.88;;;13.70;46.00;;;;;;5031897;28;20184;-49
2023/04/18 09:38:04;;;;;;;31.08;21.23;;;13.60;46.10;;;;;;5031745;28;20320;-49
2023/04/18 09:40:31;;;;;;;28.17;21.13;;;13.60;46.30;;;;;;5032405;28;20174;-49
2023/04/18 09:42:57;;;;;;;28.65;20.92;;;13.70;46.50;;;;;;5035808;28;20201;-49
2023/04/18 09:45:23;;;;;;;29.77;22.60;;;13.60;46.40;;;;;;5036053;28;20666;-49
2023/04/18 09:47:51;;;;;;;29.27;23.05;;;13.60;46.20;;;;;;5035569;28;20542;-49
2023/04/18 09:50:19;;;;;;;31.77;24.08;;;13.60;46.10;;;;;;5035724;28;20198;-49
2023/04/18 09:52:45;;;;;;;29.70;22.13;;;13.60;46.20;;;;;;5017935;28;20178;-49
2023/04/18 09:55:15;;;;;;;27.80;23.10;;;13.50;46.40;;;;;;5035481;28;20228;-49
2023/04/18 09:57:46;;;;;;;30.10;22.48;;;13.50;46.50;;;;;;5035393;28;20170;-48
2023/04/18 10:00:20;;;;;;;32.05;22.25;;;13.40;46.80;;;;;;5035396;28;20185;-48
2023/04/18 10:02:52;;;;;;;33.20;23.77;;;13.50;47.00;;;;;;5035515;28;20167;-49
2023/04/18 10:05:20;;;;;;;27.10;22.17;;;13.50;47.30;;;;;;5035671;28;20185;-49
2023/04/18 10:07:47;;;;;;;29.55;22.50;;;13.50;47.50;;;;;;5035420;28;20257;-49
2023/04/18 10:10:13;;;;;;;27.60;23.50;;;13.50;47.40;;;;;;5035167;28;20281;-48
2023/04/18 10:12:40;;;;;;;29.88;22.23;;;13.50;47.50;;;;;;5035154;28;20258;-48
2023/04/18 10:15:08;;;;;;;28.55;21.98;;;13.50;47.30;;;;;;5035149;28;20205;-48
2023/04/18 10:17:51;;;;;;;27.70;20.33;;;13.60;47.10;;;;;;5035166;28;20704;-49
2023/04/18 10:20:20;;;;;;;27.20;20.73;;;13.60;46.90;;;;;;5035057;28;20220;-49
2023/04/18 10:22:47;;;;;;;26.33;20.90;;;13.50;47.10;;;;;;5034755;28;20178;-49
2023/04/18 10:25:33;;;;;;;26.70;21.30;;;13.50;47.30;;;;;;5035092;28;20658;-49
2023/04/18 10:28:00;;;;;;;25.67;20.15;;;13.50;47.50;;;;;;5034793;28;20209;-49
2023/04/18 10:31:04;;;;;;;26.48;20.35;;;13.60;47.60;;;;;;5035128;28;20205;-49
2023/04/18 10:33:34;;;;;;;31.70;22.13;;;13.60;47.20;;;;;;5019667;28;20182;-49
2023/04/18 10:36:04;;;;;;;32.38;20.58;;;13.60;47.60;;;;;;5034897;28;20189;-48
2023/04/18 10:38:31;;;;;;;32.70;21.73;;;13.60;47.60;;;;;;5034865;28;20205;-49
2023/04/18 10:41:22;;;;;;;25.17;20.80;;;13.60;47.80;;;;;;5034893;28;20529;-49
2023/04/18 10:44:10;;;;;;;29.45;21.42;;;13.70;47.90;;;;;;5034786;28;20554;-48
2023/04/18 10:46:37;;;;;;;27.48;21.27;;;13.70;47.90;;;;;;5034944;28;20186;-49
2023/04/18 10:49:16;;;;;;;31.67;23.38;;;13.70;48.10;;;;;;5034529;28;20224;-48
2023/04/18 10:51:46;;;;;;;31.52;22.45;;;13.70;47.90;;;;;;5033917;28;20563;-49
2023/04/18 10:54:53;;;;;;;26.40;22.17;;;13.70;48.10;;;;;;5034386;28;20504;-49
2023/04/18 10:57:19;;;;;;;30.85;23.13;;;13.70;47.90;;;;;;5031820;28;20224;-49
2023/04/18 10:59:50;;;;;;;28.93;22.53;;;13.70;48.10;;;;;;5034272;28;20197;-49
2023/04/18 11:02:31;;;;;;;33.60;24.48;;;13.70;47.90;;;;;;5034296;28;20476;-48
2023/04/18 11:05:03;;;;;;;35.65;25.88;;;13.70;48.00;;;;;;5034327;28;20192;-49
2023/04/18 11:07:47;;;;;;;37.30;27.92;;;13.70;47.80;;;;;;5034535;28;20158;-49
2023/04/18 11:10:17;;;;;;;32.42;23.05;;;13.80;47.90;;;;;;5034064;28;20198;-49
2023/04/18 11:12:43;;;;;;;34.05;24.90;;;13.80;48.10;;;;;;5034156;28;20185;-49
2023/04/18 11:15:20;;;;;;;31.73;22.60;;;13.80;48.10;;;;;;5034139;28;20538;-49
2023/04/18 11:18:02;;;;;;;30.65;22.92;;;13.80;48.20;;;;;;5034321;28;20495;-49
2023/04/18 11:20:47;;;;;;;26.20;20.50;;;13.80;48.00;;;;;;5033999;28;20159;-50
2023/04/18 11:23:19;;;;;;;27.65;20.60;;;13.80;47.90;;;;;;5033839;28;20177;-49
2023/04/18 11:25:48;;;;;;;24.20;19.83;;;13.80;48.00;;;;;;5034089;28;20261;-49
2023/04/18 11:28:21;;;;;;;27.55;22.15;;;13.80;48.00;;;;;;5034088;28;20217;-48
2023/04/18 11:30:47;;;;;;;31.77;21.40;;;13.80;48.40;;;;;;5034078;28;20190;-49
2023/04/18 11:33:13;;;;;;;25.63;20.20;;;13.80;48.40;;;;;;5033490;28;20252;-49
2023/04/18 11:35:41;;;;;;;26.48;19.65;;;13.80;48.40;;;;;;5033952;28;20181;-49
2023/04/18 11:38:09;;;;;;;24.73;20.42;;;13.80;48.60;;;;;;5033592;28;20650;-49
2023/04/18 11:40:36;;;;;;;26.77;19.27;;;13.90;48.80;;;;;;5033731;28;20193;-49
2023/04/18 11:43:04;;;;;;;24.98;19.35;;;13.90;48.60;;;;;;5033366;28;20639;-48
2023/04/18 11:45:30;;;;;;;28.75;19.65;;;13.90;48.50;;;;;;5033548;28;20181;-49
2023/04/18 11:47:57;;;;;;;29.47;20.10;;;14.00;48.60;;;;;;5033520;28;20297;-49
2023/04/18 11:50:23;;;;;;;23.48;19.90;;;14.00;48.40;;;;;;5033615;28;20444;-48
2023/04/18 11:52:51;;;;;;;31.33;23.63;;;13.90;48.40;;;;;;5033283;28;20177;-49
2023/04/18 11:55:26;;;;;;;22.80;18.05;;;13.90;48.70;;;;;;5033621;28;20197;-49
2023/04/18 11:57:55;;;;;;;27.00;20.83;;;14.00;48.80;;;;;;5033543;28;20203;-49
2023/04/18 12:00:40;;;;;;;27.55;22.92;;;14.00;48.80;;;;;;5033468;28;20173;-49
2023/04/18 12:03:17;;;;;;;29.50;22.20;;;14.00;48.80;;;;;;5032601;28;20178;-49
2023/04/18 12:05:44;;;;;;;30.70;21.02;;;14.10;48.80;;;;;;5015579;28;20200;-49
2023/04/18 12:08:12;;;;;;;26.58;20.10;;;14.10;48.80;;;;;;5033014;28;20210;-49
2023/04/18 12:10:51;;;;;;;25.85;20.50;;;14.10;48.80;;;;;;5032855;28;20205;-49
2023/04/18 12:13:18;;;;;;;28.52;21.67;;;14.20;48.90;;;;;;5032965;28;20174;-49
2023/04/18 12:15:45;;;;;;;30.15;21.75;;;14.20;48.50;;;;;;5033062;28;20194;-49
2023/04/18 12:18:14;;;;;;;29.25;21.90;;;14.10;48.60;;;;;;5033148;28;20268;-49
2023/04/18 12:20:50;;;;;;;30.52;20.33;;;14.10;48.60;;;;;;5032878;28;20673;-49
2023/04/18 12:23:33;;;;;;;28.85;21.23;;;14.20;48.40;;;;;;5032527;28;20712;-49
2023/04/18 12:26:02;;;;;;;25.92;20.60;;;14.20;48.50;;;;;;5032836;28;20189;-49
2023/04/18 12:28:29;;;;;;;29.42;22.30;;;14.20;48.40;;;;;;5032977;28;20226;-49
2023/04/18 12:30:55;;;;;;;24.90;20.45;;;14.20;48.50;;;;;;5032896;28;20212;-49